createdAt,value
2022-11-30T00:02:01.452Z,8.70
2022-11-30T00:07:03.490Z,9.07
2022-11-30T00:12:05.618Z,8.65
2022-11-30T00:17:07.393Z,8.95
2022-11-30T00:22:09.316Z,8.73
2022-11-30T00:27:11.042Z,8.98
2022-11-30T00:32:12.775Z,8.95
2022-11-30T00:37:15.009Z,8.35
2022-11-30T00:42:16.929Z,9.05
2022-11-30T00:47:18.840Z,8.57
2022-11-30T00:52:20.567Z,8.45
2022-11-30T00:57:22.457Z,8.13
2022-11-30T01:02:24.240Z,8.60
2022-11-30T01:07:26.099Z,8.63
2022-11-30T01:12:27.954Z,9.07
2022-11-30T01:17:31.429Z,8.85
2022-11-30T01:22:33.545Z,8.93
2022-11-30T01:27:36.704Z,8.55
2022-11-30T01:32:38.500Z,9.75
2022-11-30T01:37:40.337Z,9.15
2022-11-30T01:42:46.600Z,9.43
2022-11-30T01:47:52.339Z,9.38
2022-11-30T01:52:57.049Z,9.73
2022-11-30T01:58:06.449Z,9.35
2022-11-30T02:03:28.413Z,9.80
2022-11-30T02:08:31.624Z,8.90
2022-11-30T02:14:00.817Z,9.90
2022-11-30T02:19:14.830Z,9.43
2022-11-30T02:24:47.739Z,9.82
2022-11-30T02:29:56.298Z,8.77
2022-11-30T02:35:00.503Z,9.85
2022-11-30T02:40:06.744Z,8.82
2022-11-30T02:45:09.814Z,9.05
2022-11-30T02:50:14.479Z,9.30
2022-11-30T02:55:18.315Z,9.60
2022-11-30T03:00:20.337Z,9.40
2022-11-30T03:05:22.266Z,9.10
2022-11-30T03:10:24.002Z,10.00
2022-11-30T03:15:26.353Z,8.80
2022-11-30T03:20:28.080Z,8.95
2022-11-30T03:25:29.874Z,9.77
2022-11-30T03:30:31.694Z,9.57
2022-11-30T03:35:33.553Z,10.05
2022-11-30T03:40:37.246Z,10.00
2022-11-30T03:45:38.955Z,9.30
2022-11-30T03:50:42.112Z,9.07
2022-11-30T03:55:43.969Z,8.95
2022-11-30T04:00:45.699Z,9.32
2022-11-30T04:05:47.690Z,9.75
2022-11-30T04:10:54.408Z,8.88
2022-11-30T04:15:56.572Z,9.55
2022-11-30T04:20:59.482Z,9.25
2022-11-30T04:26:03.921Z,8.48
2022-11-30T04:31:06.575Z,8.73
2022-11-30T04:36:17.910Z,9.02
2022-11-30T04:41:19.774Z,8.80
2022-11-30T04:46:21.552Z,9.07
2022-11-30T04:51:23.354Z,9.65
2022-11-30T04:56:25.153Z,8.90
2022-11-30T05:01:27.010Z,9.23
2022-11-30T05:06:28.848Z,9.93
2022-11-30T05:11:30.706Z,9.40
2022-11-30T05:16:32.653Z,10.10
2022-11-30T05:21:34.463Z,10.45
2022-11-30T05:26:37.278Z,12.02
2022-11-30T05:31:39.867Z,10.93
2022-11-30T05:36:41.704Z,11.85
2022-11-30T05:41:43.491Z,10.60
2022-11-30T05:46:45.275Z,12.02
2022-11-30T05:51:47.190Z,11.80
2022-11-30T05:56:53.100Z,11.77
2022-11-30T06:01:56.897Z,11.20
2022-11-30T06:06:58.809Z,11.60
2022-11-30T06:12:00.704Z,12.35
2022-11-30T06:17:02.535Z,12.65
2022-11-30T06:22:04.264Z,11.65
2022-11-30T06:27:06.001Z,11.45
2022-11-30T06:32:08.340Z,11.57
2022-11-30T06:37:10.314Z,12.60
2022-11-30T06:42:12.200Z,12.60
2022-11-30T06:47:14.126Z,12.82
2022-11-30T06:52:15.969Z,13.05
2022-11-30T06:57:17.817Z,12.15
2022-11-30T07:02:19.595Z,12.27
2022-11-30T07:07:21.663Z,12.73
2022-11-30T07:12:24.423Z,13.85
2022-11-30T07:17:26.210Z,13.02
2022-11-30T07:22:27.994Z,12.05
2022-11-30T07:27:32.007Z,12.75
2022-11-30T07:32:33.758Z,13.75
2022-11-30T07:37:35.613Z,12.65
2022-11-30T07:42:37.486Z,12.95
2022-11-30T07:47:39.237Z,12.98
2022-11-30T07:52:41.160Z,13.85
2022-11-30T07:57:42.838Z,13.05
2022-11-30T08:02:44.586Z,13.23
2022-11-30T08:07:51.449Z,14.73
2022-11-30T08:12:53.402Z,14.30
2022-11-30T08:17:55.455Z,12.95
2022-11-30T08:22:58.788Z,13.15
2022-11-30T08:28:00.675Z,12.10
2022-11-30T08:33:02.587Z,12.82
2022-11-30T08:38:04.370Z,14.98
2022-11-30T08:43:06.139Z,13.60
2022-11-30T08:48:07.970Z,13.98
2022-11-30T08:53:09.740Z,13.48
2022-11-30T08:58:11.557Z,13.30
2022-11-30T09:03:14.704Z,12.23
2022-11-30T09:08:16.638Z,12.70
2022-11-30T09:13:18.366Z,13.63
2022-11-30T09:18:20.442Z,11.77
2022-11-30T09:23:22.280Z,12.60
2022-11-30T09:28:24.295Z,12.18
2022-11-30T09:33:26.620Z,12.27
2022-11-30T09:38:28.816Z,12.10
2022-11-30T09:43:45.651Z,13.07
2022-11-30T09:48:56.290Z,12.23
2022-11-30T09:54:13.210Z,12.52
2022-11-30T09:59:22.242Z,12.70
2022-11-30T10:04:29.821Z,13.15
2022-11-30T10:10:08.944Z,13.43
2022-11-30T10:15:50.719Z,12.82
2022-11-30T10:21:03.865Z,13.85
2022-11-30T10:26:16.395Z,12.75
2022-11-30T10:31:30.174Z,15.75
2022-11-30T10:36:39.675Z,12.68
2022-11-30T10:41:47.646Z,11.85
2022-11-30T10:46:58.240Z,12.77
2022-11-30T10:52:04.689Z,13.80
2022-11-30T10:57:07.329Z,13.40
2022-11-30T11:02:38.234Z,13.38
2022-11-30T11:08:19.343Z,12.18
2022-11-30T11:13:38.880Z,12.70
2022-11-30T11:18:55.541Z,13.38
2022-11-30T11:23:58.139Z,12.95
2022-11-30T11:29:00.014Z,12.45
2022-11-30T11:34:02.548Z,13.55
2022-11-30T11:39:25.570Z,13.07
2022-11-30T11:44:28.137Z,13.95
2022-11-30T11:49:34.390Z,16.15
2022-11-30T11:54:57.326Z,15.60
2022-11-30T12:00:16.575Z,14.02
2022-11-30T12:05:27.127Z,13.95
2022-11-30T12:10:53.419Z,14.05
2022-11-30T12:16:01.638Z,15.18
2022-11-30T12:21:19.152Z,14.60
2022-11-30T12:26:50.523Z,16.80
2022-11-30T12:31:55.043Z,14.40
2022-11-30T12:37:08.581Z,14.85
2022-11-30T12:42:49.611Z,14.88
2022-11-30T12:48:05.133Z,22.50
2022-11-30T12:53:27.159Z,27.80
2022-11-30T12:58:51.125Z,27.67
2022-11-30T13:04:19.236Z,26.55
2022-11-30T13:09:41.420Z,24.95
2022-11-30T13:14:43.406Z,27.13
2022-11-30T13:20:08.581Z,24.63
2022-11-30T13:26:08.926Z,23.45
2022-11-30T13:31:15.436Z,18.83
2022-11-30T13:36:36.027Z,17.45
2022-11-30T13:41:38.182Z,16.60
2022-11-30T13:46:50.225Z,15.95
2022-11-30T13:52:13.565Z,17.30
2022-11-30T13:57:28.975Z,18.13
2022-11-30T14:02:34.054Z,18.67
2022-11-30T14:07:39.080Z,19.38
2022-11-30T14:12:56.518Z,18.45
2022-11-30T14:17:59.005Z,19.42
2022-11-30T14:23:11.980Z,18.67
2022-11-30T14:28:18.490Z,19.83
2022-11-30T14:33:39.434Z,20.33
2022-11-30T14:38:42.533Z,20.83
2022-11-30T14:44:01.588Z,18.08
2022-11-30T14:49:05.323Z,20.20
2022-11-30T14:54:38.171Z,19.08
2022-11-30T14:59:54.926Z,20.13
2022-11-30T15:04:58.670Z,18.05
2022-11-30T15:10:10.978Z,19.20
2022-11-30T15:15:17.080Z,17.52
2022-11-30T15:20:26.734Z,17.67
2022-11-30T15:25:37.966Z,18.73
2022-11-30T15:30:43.142Z,17.00
2022-11-30T15:36:15.971Z,16.98
2022-11-30T15:41:24.631Z,16.17
2022-11-30T15:46:45.776Z,17.00
2022-11-30T15:52:14.302Z,16.40
2022-11-30T15:57:17.109Z,17.40
2022-11-30T16:02:28.251Z,17.30
2022-11-30T16:07:52.967Z,18.17
2022-11-30T16:12:55.926Z,18.63
2022-11-30T16:18:15.793Z,18.65
2022-11-30T16:23:19.183Z,17.95
2022-11-30T16:28:22.620Z,17.88
2022-11-30T16:33:30.724Z,19.38
2022-11-30T16:38:33.217Z,19.02
2022-11-30T16:43:35.022Z,19.75
2022-11-30T16:48:36.826Z,20.17
2022-11-30T16:53:38.549Z,20.67
2022-11-30T16:58:40.924Z,23.65
2022-11-30T17:03:45.778Z,24.08
2022-11-30T17:08:47.990Z,29.27
2022-11-30T17:13:49.775Z,28.30
2022-11-30T17:18:51.558Z,27.75
2022-11-30T17:23:53.431Z,29.05
2022-11-30T17:28:55.807Z,26.02
2022-11-30T17:33:57.591Z,25.80
2022-11-30T17:38:59.456Z,25.40
2022-11-30T17:44:02.330Z,26.98
2022-11-30T17:49:04.382Z,27.73
2022-11-30T17:54:06.175Z,25.83
2022-11-30T17:59:08.054Z,28.13
2022-11-30T18:04:09.909Z,25.10
2022-11-30T18:09:12.414Z,25.23
2022-11-30T18:14:14.231Z,26.38
2022-11-30T18:19:17.903Z,26.15
2022-11-30T18:24:25.064Z,24.40
2022-11-30T18:29:28.034Z,25.30
2022-11-30T18:34:29.798Z,27.17
2022-11-30T18:39:31.533Z,26.35
2022-11-30T18:44:33.274Z,26.65
2022-11-30T18:49:35.598Z,26.48
2022-11-30T18:54:37.333Z,28.55
2022-11-30T18:59:39.106Z,25.27
2022-11-30T19:04:40.824Z,26.83
2022-11-30T19:09:43.002Z,26.13
2022-11-30T19:14:45.483Z,27.10
2022-11-30T19:19:47.501Z,28.58
2022-11-30T19:24:49.431Z,30.35
2022-11-30T19:29:53.662Z,32.50
2022-11-30T19:34:55.414Z,31.17
2022-11-30T19:39:57.137Z,30.83
2022-11-30T19:44:58.955Z,31.35
2022-11-30T19:50:00.762Z,32.63
2022-11-30T19:55:02.626Z,30.42
2022-11-30T20:00:06.679Z,29.25
2022-11-30T20:05:08.979Z,33.33
2022-11-30T20:10:13.422Z,34.70
2022-11-30T20:15:15.219Z,32.88
2022-11-30T20:20:16.971Z,30.40
2022-11-30T20:25:19.969Z,32.92
2022-11-30T20:30:21.850Z,35.42
2022-11-30T20:35:23.556Z,31.58
2022-11-30T20:40:25.372Z,31.23
2022-11-30T20:45:27.153Z,30.40
2022-11-30T20:50:28.883Z,29.35
2022-11-30T20:55:30.638Z,30.13
2022-11-30T21:00:32.340Z,30.50
2022-11-30T21:05:34.499Z,28.63
2022-11-30T21:10:40.374Z,29.17
2022-11-30T21:15:42.264Z,27.90
2022-11-30T21:20:44.111Z,27.25
2022-11-30T21:25:45.854Z,27.50
2022-11-30T21:30:47.775Z,27.00
2022-11-30T21:35:49.614Z,25.92
2022-11-30T21:40:56.034Z,25.90
2022-11-30T21:46:02.908Z,26.23
2022-11-30T21:51:09.096Z,25.20
2022-11-30T21:56:14.152Z,25.95
2022-11-30T22:01:19.060Z,24.30
2022-11-30T22:06:20.897Z,24.50
2022-11-30T22:11:23.455Z,23.40
2022-11-30T22:16:29.924Z,24.75
2022-11-30T22:21:36.087Z,25.70
2022-11-30T22:26:43.666Z,24.80
2022-11-30T22:31:48.972Z,23.80
2022-11-30T22:36:50.967Z,23.10
2022-11-30T22:41:56.150Z,24.30
2022-11-30T22:46:59.758Z,22.00
2022-11-30T22:52:01.673Z,22.30
2022-11-30T22:57:03.458Z,22.88
2022-11-30T23:02:05.272Z,22.08
2022-11-30T23:07:06.988Z,20.65
2022-11-30T23:12:08.978Z,21.48
2022-11-30T23:17:11.178Z,18.90
2022-11-30T23:22:12.954Z,19.70
2022-11-30T23:27:14.697Z,21.17
2022-11-30T23:32:16.530Z,19.15
2022-11-30T23:37:18.403Z,21.90
2022-11-30T23:42:20.174Z,19.23
2022-11-30T23:47:21.916Z,21.73
2022-11-30T23:52:23.730Z,20.70
2022-11-30T23:57:25.489Z,19.92
